sensor_id;sensor_type;location;lat;lon;timestamp;P1;durP1;ratioP1;P2;durP2;ratioP2
21330;SDS011;10824;51.632;4.950;2022-09-21T00:01:24;6.00;;;2.00;;
21330;SDS011;10824;51.632;4.950;2022-09-21T00:03:57;4.43;;;1.80;;
21330;SDS011;10824;51.632;4.950;2022-09-21T00:06:27;3.75;;;1.92;;
21330;SDS011;10824;51.632;4.950;2022-09-21T00:08:56;4.57;;;1.77;;
21330;SDS011;10824;51.632;4.950;2022-09-21T00:11:24;2.42;;;1.90;;
21330;SDS011;10824;51.632;4.950;2022-09-21T00:13:54;6.07;;;2.10;;
21330;SDS011;10824;51.632;4.950;2022-09-21T00:16:27;2.67;;;1.98;;
21330;SDS011;10824;51.632;4.950;2022-09-21T00:18:54;9.27;;;2.10;;
21330;SDS011;10824;51.632;4.950;2022-09-21T00:21:22;2.55;;;1.90;;
21330;SDS011;10824;51.632;4.950;2022-09-21T00:23:50;3.33;;;1.60;;
21330;SDS011;10824;51.632;4.950;2022-09-21T00:26:18;6.07;;;1.75;;
21330;SDS011;10824;51.632;4.950;2022-09-21T00:28:50;4.78;;;2.65;;
21330;SDS011;10824;51.632;4.950;2022-09-21T00:31:22;4.80;;;2.00;;
21330;SDS011;10824;51.632;4.950;2022-09-21T00:33:50;3.67;;;1.55;;
21330;SDS011;10824;51.632;4.950;2022-09-21T00:36:18;7.13;;;1.85;;
21330;SDS011;10824;51.632;4.950;2022-09-21T00:38:51;3.00;;;1.65;;
21330;SDS011;10824;51.632;4.950;2022-09-21T00:41:20;4.75;;;1.67;;
21330;SDS011;10824;51.632;4.950;2022-09-21T00:43:49;5.47;;;1.83;;
21330;SDS011;10824;51.632;4.950;2022-09-21T00:46:44;2.65;;;1.60;;
21330;SDS011;10824;51.632;4.950;2022-09-21T00:49:13;6.13;;;2.60;;
21330;SDS011;10824;51.632;4.950;2022-09-21T00:51:42;3.67;;;1.88;;
21330;SDS011;10824;51.632;4.950;2022-09-21T00:54:14;4.47;;;2.67;;
21330;SDS011;10824;51.632;4.950;2022-09-21T00:56:46;5.50;;;1.70;;
21330;SDS011;10824;51.632;4.950;2022-09-21T00:59:14;4.90;;;2.55;;
21330;SDS011;10824;51.632;4.950;2022-09-21T01:01:47;4.43;;;2.40;;
21330;SDS011;10824;51.632;4.950;2022-09-21T01:04:14;3.42;;;2.17;;
21330;SDS011;10824;51.632;4.950;2022-09-21T01:06:44;5.85;;;2.92;;
21330;SDS011;10824;51.632;4.950;2022-09-21T01:09:13;3.35;;;2.30;;
21330;SDS011;10824;51.632;4.950;2022-09-21T01:12:07;5.93;;;1.85;;
21330;SDS011;10824;51.632;4.950;2022-09-21T01:17:19;5.22;;;2.08;;
21330;SDS011;10824;51.632;4.950;2022-09-21T01:20:06;3.88;;;2.10;;
21330;SDS011;10824;51.632;4.950;2022-09-21T01:28:15;3.47;;;2.10;;
21330;SDS011;10824;51.632;4.950;2022-09-21T01:30:51;2.08;;;1.20;;
21330;SDS011;10824;51.632;4.950;2022-09-21T01:33:26;5.80;;;2.53;;
21330;SDS011;10824;51.632;4.950;2022-09-21T01:36:00;2.88;;;1.50;;
21330;SDS011;10824;51.632;4.950;2022-09-21T01:38:52;1.88;;;1.38;;
21330;SDS011;10824;51.632;4.950;2022-09-21T01:41:24;3.70;;;1.58;;
21330;SDS011;10824;51.632;4.950;2022-09-21T01:43:55;1.73;;;1.30;;
21330;SDS011;10824;51.632;4.950;2022-09-21T01:46:29;1.92;;;1.30;;
21330;SDS011;10824;51.632;4.950;2022-09-21T01:49:07;5.88;;;1.67;;
21330;SDS011;10824;51.632;4.950;2022-09-21T01:51:40;2.83;;;1.98;;
21330;SDS011;10824;51.632;4.950;2022-09-21T01:54:14;3.97;;;1.52;;
21330;SDS011;10824;51.632;4.950;2022-09-21T01:56:48;3.63;;;2.00;;
21330;SDS011;10824;51.632;4.950;2022-09-21T01:59:30;2.83;;;1.40;;
21330;SDS011;10824;51.632;4.950;2022-09-21T02:02:19;2.03;;;1.27;;
21330;SDS011;10824;51.632;4.950;2022-09-21T02:04:54;3.05;;;1.73;;
21330;SDS011;10824;51.632;4.950;2022-09-21T02:07:22;4.35;;;2.28;;
21330;SDS011;10824;51.632;4.950;2022-09-21T02:09:50;4.47;;;1.70;;
21330;SDS011;10824;51.632;4.950;2022-09-21T02:12:20;4.60;;;1.88;;
21330;SDS011;10824;51.632;4.950;2022-09-21T02:14:47;3.58;;;1.75;;
21330;SDS011;10824;51.632;4.950;2022-09-21T02:20:14;5.70;;;1.45;;
21330;SDS011;10824;51.632;4.950;2022-09-21T02:28:24;2.92;;;2.10;;
21330;SDS011;10824;51.632;4.950;2022-09-21T02:30:54;2.92;;;1.65;;
21330;SDS011;10824;51.632;4.950;2022-09-21T02:36:32;4.72;;;1.58;;
21330;SDS011;10824;51.632;4.950;2022-09-21T02:39:09;1.60;;;1.20;;
21330;SDS011;10824;51.632;4.950;2022-09-21T02:44:19;2.93;;;1.57;;
21330;SDS011;10824;51.632;4.950;2022-09-21T02:49:40;2.40;;;1.45;;
21330;SDS011;10824;51.632;4.950;2022-09-21T02:52:12;3.53;;;1.48;;
21330;SDS011;10824;51.632;4.950;2022-09-21T02:54:42;3.10;;;1.70;;
21330;SDS011;10824;51.632;4.950;2022-09-21T02:57:16;2.15;;;1.33;;
21330;SDS011;10824;51.632;4.950;2022-09-21T02:59:45;1.88;;;1.20;;
21330;SDS011;10824;51.632;4.950;2022-09-21T03:02:13;2.45;;;1.23;;
21330;SDS011;10824;51.632;4.950;2022-09-21T03:04:40;3.47;;;1.80;;
21330;SDS011;10824;51.632;4.950;2022-09-21T03:07:15;4.70;;;1.75;;
21330;SDS011;10824;51.632;4.950;2022-09-21T03:09:43;2.50;;;1.55;;
21330;SDS011;10824;51.632;4.950;2022-09-21T03:12:10;2.92;;;1.05;;
21330;SDS011;10824;51.632;4.950;2022-09-21T03:14:37;3.63;;;1.35;;
21330;SDS011;10824;51.632;4.950;2022-09-21T03:17:04;2.67;;;1.35;;
21330;SDS011;10824;51.632;4.950;2022-09-21T03:19:31;3.45;;;1.42;;
21330;SDS011;10824;51.632;4.950;2022-09-21T03:21:59;4.63;;;1.70;;
21330;SDS011;10824;51.632;4.950;2022-09-21T03:24:26;2.78;;;1.60;;
21330;SDS011;10824;51.632;4.950;2022-09-21T03:27:18;5.50;;;1.77;;
21330;SDS011;10824;51.632;4.950;2022-09-21T03:29:46;3.30;;;1.50;;
21330;SDS011;10824;51.632;4.950;2022-09-21T03:32:13;2.20;;;1.90;;
21330;SDS011;10824;51.632;4.950;2022-09-21T03:34:40;3.00;;;1.35;;
21330;SDS011;10824;51.632;4.950;2022-09-21T03:37:08;3.10;;;1.58;;
21330;SDS011;10824;51.632;4.950;2022-09-21T03:39:35;3.05;;;2.08;;
21330;SDS011;10824;51.632;4.950;2022-09-21T03:42:03;4.70;;;2.42;;
21330;SDS011;10824;51.632;4.950;2022-09-21T03:44:31;2.28;;;1.90;;
21330;SDS011;10824;51.632;4.950;2022-09-21T03:46:58;1.58;;;1.30;;
21330;SDS011;10824;51.632;4.950;2022-09-21T03:49:25;2.97;;;1.40;;
21330;SDS011;10824;51.632;4.950;2022-09-21T03:51:52;10.65;;;2.25;;
21330;SDS011;10824;51.632;4.950;2022-09-21T03:54:22;2.25;;;1.63;;
21330;SDS011;10824;51.632;4.950;2022-09-21T03:56:51;2.17;;;1.10;;
21330;SDS011;10824;51.632;4.950;2022-09-21T03:59:18;3.05;;;1.38;;
21330;SDS011;10824;51.632;4.950;2022-09-21T04:01:45;2.30;;;1.10;;
21330;SDS011;10824;51.632;4.950;2022-09-21T04:04:12;3.42;;;1.25;;
21330;SDS011;10824;51.632;4.950;2022-09-21T04:06:41;4.30;;;2.20;;
21330;SDS011;10824;51.632;4.950;2022-09-21T04:09:11;2.53;;;1.73;;
21330;SDS011;10824;51.632;4.950;2022-09-21T04:11:40;2.40;;;1.10;;
21330;SDS011;10824;51.632;4.950;2022-09-21T04:14:09;4.15;;;1.30;;
21330;SDS011;10824;51.632;4.950;2022-09-21T04:16:37;3.25;;;2.13;;
21330;SDS011;10824;51.632;4.950;2022-09-21T04:19:04;1.73;;;1.00;;
21330;SDS011;10824;51.632;4.950;2022-09-21T04:21:32;3.78;;;1.30;;
21330;SDS011;10824;51.632;4.950;2022-09-21T04:23:59;2.85;;;1.20;;
21330;SDS011;10824;51.632;4.950;2022-09-21T04:26:28;1.40;;;1.30;;
21330;SDS011;10824;51.632;4.950;2022-09-21T04:28:58;2.65;;;1.15;;
21330;SDS011;10824;51.632;4.950;2022-09-21T04:31:26;2.40;;;1.25;;
21330;SDS011;10824;51.632;4.950;2022-09-21T04:33:55;3.88;;;1.58;;
21330;SDS011;10824;51.632;4.950;2022-09-21T04:36:23;1.95;;;1.40;;
21330;SDS011;10824;51.632;4.950;2022-09-21T04:38:51;1.95;;;1.23;;
21330;SDS011;10824;51.632;4.950;2022-09-21T04:41:19;2.60;;;1.67;;
21330;SDS011;10824;51.632;4.950;2022-09-21T04:43:47;1.55;;;1.13;;
21330;SDS011;10824;51.632;4.950;2022-09-21T04:46:16;3.70;;;1.60;;
21330;SDS011;10824;51.632;4.950;2022-09-21T04:48:45;3.50;;;1.55;;
21330;SDS011;10824;51.632;4.950;2022-09-21T04:51:14;6.07;;;3.20;;
21330;SDS011;10824;51.632;4.950;2022-09-21T04:53:42;2.42;;;1.58;;
21330;SDS011;10824;51.632;4.950;2022-09-21T04:56:11;3.00;;;1.20;;
21330;SDS011;10824;51.632;4.950;2022-09-21T04:58:41;3.80;;;2.05;;
21330;SDS011;10824;51.632;4.950;2022-09-21T05:01:09;4.65;;;2.17;;
21330;SDS011;10824;51.632;4.950;2022-09-21T05:03:37;4.60;;;2.20;;
21330;SDS011;10824;51.632;4.950;2022-09-21T05:06:04;10.02;;;4.72;;
21330;SDS011;10824;51.632;4.950;2022-09-21T05:08:31;10.32;;;5.15;;
21330;SDS011;10824;51.632;4.950;2022-09-21T05:11:17;10.40;;;4.03;;
21330;SDS011;10824;51.632;4.950;2022-09-21T05:13:45;3.75;;;2.05;;
21330;SDS011;10824;51.632;4.950;2022-09-21T05:16:14;3.20;;;1.95;;
21330;SDS011;10824;51.632;4.950;2022-09-21T05:18:43;1.60;;;1.23;;
21330;SDS011;10824;51.632;4.950;2022-09-21T05:21:12;4.63;;;1.90;;
21330;SDS011;10824;51.632;4.950;2022-09-21T05:23:40;2.47;;;1.92;;
21330;SDS011;10824;51.632;4.950;2022-09-21T05:26:07;3.13;;;1.70;;
21330;SDS011;10824;51.632;4.950;2022-09-21T05:28:35;3.08;;;1.60;;
21330;SDS011;10824;51.632;4.950;2022-09-21T05:34:47;2.67;;;1.38;;
21330;SDS011;10824;51.632;4.950;2022-09-21T05:40:10;4.68;;;1.70;;
21330;SDS011;10824;51.632;4.950;2022-09-21T05:42:39;5.32;;;1.45;;
21330;SDS011;10824;51.632;4.950;2022-09-21T05:45:08;6.03;;;2.10;;
21330;SDS011;10824;51.632;4.950;2022-09-21T05:50:55;6.93;;;1.85;;
21330;SDS011;10824;51.632;4.950;2022-09-21T05:53:49;1.98;;;1.25;;
21330;SDS011;10824;51.632;4.950;2022-09-21T06:04:52;2.17;;;1.20;;
21330;SDS011;10824;51.632;4.950;2022-09-21T06:07:23;3.63;;;1.50;;
21330;SDS011;10824;51.632;4.950;2022-09-21T06:09:50;2.15;;;1.25;;
21330;SDS011;10824;51.632;4.950;2022-09-21T06:12:17;2.45;;;1.35;;
21330;SDS011;10824;51.632;4.950;2022-09-21T06:14:45;2.97;;;1.60;;
21330;SDS011;10824;51.632;4.950;2022-09-21T06:17:12;2.25;;;1.40;;
21330;SDS011;10824;51.632;4.950;2022-09-21T06:19:39;3.33;;;1.20;;
21330;SDS011;10824;51.632;4.950;2022-09-21T06:22:08;2.65;;;1.52;;
21330;SDS011;10824;51.632;4.950;2022-09-21T06:24:35;3.35;;;1.67;;
21330;SDS011;10824;51.632;4.950;2022-09-21T06:27:02;4.93;;;1.40;;
21330;SDS011;10824;51.632;4.950;2022-09-21T06:29:29;3.90;;;1.60;;
21330;SDS011;10824;51.632;4.950;2022-09-21T06:31:56;5.97;;;1.70;;
21330;SDS011;10824;51.632;4.950;2022-09-21T06:34:25;2.17;;;1.40;;
21330;SDS011;10824;51.632;4.950;2022-09-21T06:36:52;6.85;;;1.55;;
21330;SDS011;10824;51.632;4.950;2022-09-21T06:39:19;5.75;;;3.45;;
21330;SDS011;10824;51.632;4.950;2022-09-21T06:41:46;5.40;;;1.40;;
21330;SDS011;10824;51.632;4.950;2022-09-21T06:44:14;2.10;;;1.55;;
21330;SDS011;10824;51.632;4.950;2022-09-21T06:46:41;3.70;;;2.15;;
21330;SDS011;10824;51.632;4.950;2022-09-21T06:49:08;8.93;;;2.25;;
21330;SDS011;10824;51.632;4.950;2022-09-21T06:51:35;5.38;;;1.70;;
21330;SDS011;10824;51.632;4.950;2022-09-21T06:54:02;4.03;;;1.65;;
21330;SDS011;10824;51.632;4.950;2022-09-21T06:56:30;4.97;;;1.70;;
21330;SDS011;10824;51.632;4.950;2022-09-21T06:58:58;6.32;;;1.70;;
21330;SDS011;10824;51.632;4.950;2022-09-21T07:01:25;13.35;;;4.60;;
21330;SDS011;10824;51.632;4.950;2022-09-21T07:03:53;20.83;;;8.85;;
21330;SDS011;10824;51.632;4.950;2022-09-21T07:06:20;9.27;;;4.80;;
21330;SDS011;10824;51.632;4.950;2022-09-21T07:08:50;6.13;;;3.00;;
21330;SDS011;10824;51.632;4.950;2022-09-21T07:11:37;6.70;;;2.97;;
21330;SDS011;10824;51.632;4.950;2022-09-21T07:14:07;13.48;;;6.47;;
21330;SDS011;10824;51.632;4.950;2022-09-21T07:16:34;20.17;;;8.00;;
21330;SDS011;10824;51.632;4.950;2022-09-21T07:19:01;15.40;;;7.53;;
21330;SDS011;10824;51.632;4.950;2022-09-21T07:21:36;8.77;;;4.38;;
21330;SDS011;10824;51.632;4.950;2022-09-21T07:24:05;8.27;;;3.50;;
21330;SDS011;10824;51.632;4.950;2022-09-21T07:26:38;2.90;;;1.65;;
21330;SDS011;10824;51.632;4.950;2022-09-21T07:29:06;7.95;;;1.98;;
21330;SDS011;10824;51.632;4.950;2022-09-21T07:31:33;3.75;;;1.75;;
21330;SDS011;10824;51.632;4.950;2022-09-21T07:34:01;4.47;;;1.55;;
21330;SDS011;10824;51.632;4.950;2022-09-21T07:36:28;3.00;;;1.60;;
21330;SDS011;10824;51.632;4.950;2022-09-21T07:38:55;3.65;;;1.40;;
21330;SDS011;10824;51.632;4.950;2022-09-21T07:41:22;6.22;;;1.88;;
21330;SDS011;10824;51.632;4.950;2022-09-21T07:43:49;4.75;;;1.55;;
21330;SDS011;10824;51.632;4.950;2022-09-21T07:46:18;9.25;;;3.00;;
21330;SDS011;10824;51.632;4.950;2022-09-21T07:48:46;8.25;;;3.72;;
21330;SDS011;10824;51.632;4.950;2022-09-21T07:51:14;5.75;;;3.15;;
21330;SDS011;10824;51.632;4.950;2022-09-21T07:53:42;3.95;;;2.35;;
21330;SDS011;10824;51.632;4.950;2022-09-21T07:56:15;9.35;;;3.25;;
21330;SDS011;10824;51.632;4.950;2022-09-21T07:58:43;3.33;;;1.75;;
21330;SDS011;10824;51.632;4.950;2022-09-21T08:01:29;5.32;;;2.22;;
21330;SDS011;10824;51.632;4.950;2022-09-21T08:03:58;3.55;;;1.35;;
21330;SDS011;10824;51.632;4.950;2022-09-21T08:06:26;5.40;;;1.35;;
21330;SDS011;10824;51.632;4.950;2022-09-21T08:08:55;3.85;;;1.42;;
21330;SDS011;10824;51.632;4.950;2022-09-21T08:11:24;1.85;;;1.20;;
21330;SDS011;10824;51.632;4.950;2022-09-21T08:13:57;1.67;;;1.20;;
21330;SDS011;10824;51.632;4.950;2022-09-21T08:16:26;2.92;;;1.40;;
21330;SDS011;10824;51.632;4.950;2022-09-21T08:18:55;3.25;;;1.27;;
21330;SDS011;10824;51.632;4.950;2022-09-21T08:21:22;4.53;;;2.38;;
21330;SDS011;10824;51.632;4.950;2022-09-21T08:23:49;4.72;;;1.20;;
21330;SDS011;10824;51.632;4.950;2022-09-21T08:26:17;6.38;;;1.60;;
21330;SDS011;10824;51.632;4.950;2022-09-21T08:28:45;4.10;;;1.48;;
21330;SDS011;10824;51.632;4.950;2022-09-21T08:31:15;3.83;;;1.55;;
21330;SDS011;10824;51.632;4.950;2022-09-21T08:33:45;5.32;;;1.00;;
21330;SDS011;10824;51.632;4.950;2022-09-21T08:36:12;5.70;;;1.45;;
21330;SDS011;10824;51.632;4.950;2022-09-21T08:38:39;6.45;;;1.90;;
21330;SDS011;10824;51.632;4.950;2022-09-21T08:43:47;6.10;;;1.20;;
21330;SDS011;10824;51.632;4.950;2022-09-21T08:46:22;2.40;;;0.90;;
21330;SDS011;10824;51.632;4.950;2022-09-21T08:49:03;1.33;;;1.00;;
21330;SDS011;10824;51.632;4.950;2022-09-21T08:51:36;5.10;;;1.27;;
21330;SDS011;10824;51.632;4.950;2022-09-21T08:54:11;5.38;;;1.33;;
21330;SDS011;10824;51.632;4.950;2022-09-21T08:56:44;2.95;;;0.88;;
21330;SDS011;10824;51.632;4.950;2022-09-21T08:59:30;2.90;;;0.93;;
21330;SDS011;10824;51.632;4.950;2022-09-21T09:02:12;5.05;;;0.70;;
21330;SDS011;10824;51.632;4.950;2022-09-21T09:05:21;2.05;;;0.70;;
21330;SDS011;10824;51.632;4.950;2022-09-21T09:11:10;3.85;;;0.80;;
21330;SDS011;10824;51.632;4.950;2022-09-21T09:19:41;4.68;;;1.17;;
21330;SDS011;10824;51.632;4.950;2022-09-21T09:22:29;3.15;;;1.05;;
21330;SDS011;10824;51.632;4.950;2022-09-21T09:25:04;1.65;;;0.85;;
21330;SDS011;10824;51.632;4.950;2022-09-21T09:27:41;5.22;;;0.95;;
21330;SDS011;10824;51.632;4.950;2022-09-21T09:35:35;1.27;;;0.50;;
21330;SDS011;10824;51.632;4.950;2022-09-21T09:38:14;1.90;;;0.50;;
21330;SDS011;10824;51.632;4.950;2022-09-21T09:41:17;1.65;;;0.77;;
21330;SDS011;10824;51.632;4.950;2022-09-21T09:49:40;2.25;;;0.60;;
21330;SDS011;10824;51.632;4.950;2022-09-21T09:52:17;3.72;;;0.60;;
21330;SDS011;10824;51.632;4.950;2022-09-21T09:54:50;1.33;;;0.68;;
21330;SDS011;10824;51.632;4.950;2022-09-21T09:57:31;1.35;;;0.80;;
21330;SDS011;10824;51.632;4.950;2022-09-21T10:00:03;4.05;;;1.63;;
21330;SDS011;10824;51.632;4.950;2022-09-21T10:02:54;5.90;;;1.27;;
21330;SDS011;10824;51.632;4.950;2022-09-21T10:05:34;4.28;;;0.65;;
21330;SDS011;10824;51.632;4.950;2022-09-21T10:08:25;2.45;;;0.57;;
21330;SDS011;10824;51.632;4.950;2022-09-21T10:11:02;2.83;;;0.88;;
21330;SDS011;10824;51.632;4.950;2022-09-21T10:13:30;4.95;;;1.30;;
21330;SDS011;10824;51.632;4.950;2022-09-21T10:16:19;1.92;;;0.70;;
21330;SDS011;10824;51.632;4.950;2022-09-21T10:21:34;0.70;;;0.40;;
21330;SDS011;10824;51.632;4.950;2022-09-21T10:27:05;3.40;;;0.60;;
21330;SDS011;10824;51.632;4.950;2022-09-21T10:29:43;0.90;;;0.50;;
21330;SDS011;10824;51.632;4.950;2022-09-21T10:37:31;3.17;;;0.70;;
21330;SDS011;10824;51.632;4.950;2022-09-21T10:40:02;2.33;;;0.70;;
21330;SDS011;10824;51.632;4.950;2022-09-21T10:42:33;4.32;;;0.70;;
21330;SDS011;10824;51.632;4.950;2022-09-21T10:45:04;1.15;;;0.40;;
21330;SDS011;10824;51.632;4.950;2022-09-21T10:47:41;0.68;;;0.57;;
21330;SDS011;10824;51.632;4.950;2022-09-21T10:53:09;2.15;;;0.50;;
21330;SDS011;10824;51.632;4.950;2022-09-21T10:55:43;2.10;;;0.45;;
21330;SDS011;10824;51.632;4.950;2022-09-21T10:59:08;1.55;;;0.52;;
21330;SDS011;10824;51.632;4.950;2022-09-21T11:01:46;1.27;;;0.50;;
21330;SDS011;10824;51.632;4.950;2022-09-21T11:04:31;2.67;;;0.55;;
21330;SDS011;10824;51.632;4.950;2022-09-21T11:07:24;1.00;;;0.50;;
21330;SDS011;10824;51.632;4.950;2022-09-21T11:10:01;8.98;;;1.30;;
21330;SDS011;10824;51.632;4.950;2022-09-21T11:13:01;5.93;;;0.60;;
21330;SDS011;10824;51.632;4.950;2022-09-21T11:26:54;2.38;;;0.80;;
21330;SDS011;10824;51.632;4.950;2022-09-21T11:29:37;2.28;;;0.52;;
21330;SDS011;10824;51.632;4.950;2022-09-21T11:32:26;2.05;;;0.57;;
21330;SDS011;10824;51.632;4.950;2022-09-21T11:35:16;1.65;;;0.65;;
21330;SDS011;10824;51.632;4.950;2022-09-21T11:54:59;0.77;;;0.40;;
21330;SDS011;10824;51.632;4.950;2022-09-21T11:57:51;1.23;;;0.30;;
21330;SDS011;10824;51.632;4.950;2022-09-21T12:01:25;0.63;;;0.30;;
21330;SDS011;10824;51.632;4.950;2022-09-21T12:06:34;1.10;;;0.38;;
21330;SDS011;10824;51.632;4.950;2022-09-21T12:12:21;1.88;;;0.30;;
21330;SDS011;10824;51.632;4.950;2022-09-21T12:17:56;3.35;;;0.40;;
21330;SDS011;10824;51.632;4.950;2022-09-21T12:23:40;1.17;;;0.40;;
21330;SDS011;10824;51.632;4.950;2022-09-21T12:26:12;0.40;;;0.40;;
21330;SDS011;10824;51.632;4.950;2022-09-21T12:28:49;0.95;;;0.50;;
21330;SDS011;10824;51.632;4.950;2022-09-21T12:32:06;1.42;;;0.60;;
21330;SDS011;10824;51.632;4.950;2022-09-21T12:34:26;0.95;;;0.40;;
21330;SDS011;10824;51.632;4.950;2022-09-21T12:37:11;1.17;;;0.43;;
21330;SDS011;10824;51.632;4.950;2022-09-21T12:39:59;1.85;;;0.40;;
21330;SDS011;10824;51.632;4.950;2022-09-21T12:42:48;2.58;;;0.47;;
21330;SDS011;10824;51.632;4.950;2022-09-21T12:45:28;0.93;;;0.55;;
21330;SDS011;10824;51.632;4.950;2022-09-21T12:50:54;0.60;;;0.40;;
21330;SDS011;10824;51.632;4.950;2022-09-21T12:53:31;2.35;;;0.30;;
21330;SDS011;10824;51.632;4.950;2022-09-21T13:01:57;2.03;;;0.70;;
21330;SDS011;10824;51.632;4.950;2022-09-21T13:10:11;1.60;;;0.38;;
21330;SDS011;10824;51.632;4.950;2022-09-21T13:12:50;2.15;;;0.45;;
21330;SDS011;10824;51.632;4.950;2022-09-21T13:15:23;2.05;;;0.50;;
21330;SDS011;10824;51.632;4.950;2022-09-21T13:18:03;1.80;;;0.50;;
21330;SDS011;10824;51.632;4.950;2022-09-21T13:20:32;1.52;;;0.32;;
21330;SDS011;10824;51.632;4.950;2022-09-21T13:23:05;1.75;;;0.52;;
21330;SDS011;10824;51.632;4.950;2022-09-21T13:25:57;3.45;;;0.50;;
21330;SDS011;10824;51.632;4.950;2022-09-21T13:44:57;0.68;;;0.30;;
21330;SDS011;10824;51.632;4.950;2022-09-21T13:47:33;1.20;;;0.60;;
21330;SDS011;10824;51.632;4.950;2022-09-21T13:50:10;0.45;;;0.30;;
21330;SDS011;10824;51.632;4.950;2022-09-21T13:55:29;2.25;;;0.43;;
21330;SDS011;10824;51.632;4.950;2022-09-21T13:57:58;1.67;;;0.50;;
21330;SDS011;10824;51.632;4.950;2022-09-21T14:03:26;0.93;;;0.30;;
21330;SDS011;10824;51.632;4.950;2022-09-21T14:08:38;0.80;;;0.40;;
21330;SDS011;10824;51.632;4.950;2022-09-21T14:11:16;0.90;;;0.50;;
21330;SDS011;10824;51.632;4.950;2022-09-21T14:14:12;0.90;;;0.50;;
21330;SDS011;10824;51.632;4.950;2022-09-21T14:16:56;3.17;;;0.98;;
21330;SDS011;10824;51.632;4.950;2022-09-21T14:24:48;3.97;;;0.40;;
21330;SDS011;10824;51.632;4.950;2022-09-21T14:27:29;1.17;;;0.40;;
21330;SDS011;10824;51.632;4.950;2022-09-21T14:35:47;1.50;;;0.70;;
21330;SDS011;10824;51.632;4.950;2022-09-21T14:38:21;1.83;;;0.50;;
21330;SDS011;10824;51.632;4.950;2022-09-21T14:41:04;0.47;;;0.32;;
21330;SDS011;10824;51.632;4.950;2022-09-21T14:43:33;3.80;;;0.50;;
21330;SDS011;10824;51.632;4.950;2022-09-21T14:51:00;1.40;;;0.50;;
21330;SDS011;10824;51.632;4.950;2022-09-21T15:06:10;1.92;;;0.50;;
21330;SDS011;10824;51.632;4.950;2022-09-21T15:15:38;3.15;;;0.50;;
21330;SDS011;10824;51.632;4.950;2022-09-21T15:18:16;0.75;;;0.30;;
21330;SDS011;10824;51.632;4.950;2022-09-21T15:20:53;1.38;;;0.68;;
21330;SDS011;10824;51.632;4.950;2022-09-21T15:23:33;1.75;;;0.73;;
21330;SDS011;10824;51.632;4.950;2022-09-21T15:26:14;3.35;;;0.50;;
21330;SDS011;10824;51.632;4.950;2022-09-21T15:31:39;2.97;;;0.52;;
21330;SDS011;10824;51.632;4.950;2022-09-21T15:34:08;2.95;;;0.60;;
21330;SDS011;10824;51.632;4.950;2022-09-21T15:36:38;1.13;;;0.55;;
21330;SDS011;10824;51.632;4.950;2022-09-21T15:39:20;4.68;;;0.70;;
21330;SDS011;10824;51.632;4.950;2022-09-21T15:42:33;3.60;;;1.00;;
21330;SDS011;10824;51.632;4.950;2022-09-21T15:44:45;1.98;;;0.90;;
21330;SDS011;10824;51.632;4.950;2022-09-21T15:47:16;3.25;;;0.93;;
21330;SDS011;10824;51.632;4.950;2022-09-21T15:49:46;3.50;;;0.65;;
21330;SDS011;10824;51.632;4.950;2022-09-21T15:52:33;2.45;;;1.20;;
21330;SDS011;10824;51.632;4.950;2022-09-21T15:55:23;0.35;;;0.32;;
21330;SDS011;10824;51.632;4.950;2022-09-21T15:57:51;1.38;;;0.22;;
21330;SDS011;10824;51.632;4.950;2022-09-21T16:00:25;1.60;;;0.50;;
21330;SDS011;10824;51.632;4.950;2022-09-21T16:03:38;1.48;;;0.43;;
21330;SDS011;10824;51.632;4.950;2022-09-21T16:05:48;0.65;;;0.30;;
21330;SDS011;10824;51.632;4.950;2022-09-21T16:08:27;1.15;;;0.40;;
21330;SDS011;10824;51.632;4.950;2022-09-21T16:13:40;0.75;;;0.30;;
21330;SDS011;10824;51.632;4.950;2022-09-21T16:16:27;2.67;;;0.50;;
21330;SDS011;10824;51.632;4.950;2022-09-21T16:18:55;3.28;;;1.40;;
21330;SDS011;10824;51.632;4.950;2022-09-21T16:21:31;4.60;;;1.90;;
21330;SDS011;10824;51.632;4.950;2022-09-21T16:24:07;3.35;;;1.73;;
21330;SDS011;10824;51.632;4.950;2022-09-21T16:26:39;2.63;;;0.73;;
21330;SDS011;10824;51.632;4.950;2022-09-21T16:31:34;1.05;;;0.52;;
21330;SDS011;10824;51.632;4.950;2022-09-21T16:34:03;0.70;;;0.50;;
21330;SDS011;10824;51.632;4.950;2022-09-21T16:36:51;1.95;;;0.50;;
21330;SDS011;10824;51.632;4.950;2022-09-21T16:39:20;1.30;;;0.40;;
21330;SDS011;10824;51.632;4.950;2022-09-21T16:41:52;0.30;;;0.30;;
21330;SDS011;10824;51.632;4.950;2022-09-21T16:44:22;4.53;;;0.60;;
21330;SDS011;10824;51.632;4.950;2022-09-21T16:46:55;0.82;;;0.50;;
21330;SDS011;10824;51.632;4.950;2022-09-21T16:49:25;1.67;;;0.47;;
21330;SDS011;10824;51.632;4.950;2022-09-21T16:51:58;3.08;;;0.50;;
21330;SDS011;10824;51.632;4.950;2022-09-21T16:54:25;1.85;;;0.60;;
21330;SDS011;10824;51.632;4.950;2022-09-21T16:57:13;1.08;;;0.45;;
21330;SDS011;10824;51.632;4.950;2022-09-21T16:59:41;0.40;;;0.40;;
21330;SDS011;10824;51.632;4.950;2022-09-21T17:02:09;2.90;;;0.40;;
21330;SDS011;10824;51.632;4.950;2022-09-21T17:04:37;1.95;;;0.50;;
21330;SDS011;10824;51.632;4.950;2022-09-21T17:07:05;4.70;;;0.70;;
21330;SDS011;10824;51.632;4.950;2022-09-21T17:12:01;0.98;;;0.50;;
21330;SDS011;10824;51.632;4.950;2022-09-21T17:14:31;3.97;;;1.40;;
21330;SDS011;10824;51.632;4.950;2022-09-21T17:17:17;1.30;;;0.50;;
21330;SDS011;10824;51.632;4.950;2022-09-21T17:19:49;0.70;;;0.40;;
21330;SDS011;10824;51.632;4.950;2022-09-21T17:22:17;0.88;;;0.60;;
21330;SDS011;10824;51.632;4.950;2022-09-21T17:24:46;1.85;;;0.57;;
21330;SDS011;10824;51.632;4.950;2022-09-21T17:27:21;1.52;;;0.50;;
21330;SDS011;10824;51.632;4.950;2022-09-21T17:29:52;3.63;;;0.50;;
21330;SDS011;10824;51.632;4.950;2022-09-21T17:32:21;3.25;;;0.75;;
21330;SDS011;10824;51.632;4.950;2022-09-21T17:37:56;1.17;;;0.73;;
21330;SDS011;10824;51.632;4.950;2022-09-21T17:40:24;4.80;;;0.73;;
21330;SDS011;10824;51.632;4.950;2022-09-21T17:42:52;5.13;;;0.82;;
21330;SDS011;10824;51.632;4.950;2022-09-21T17:49:02;3.42;;;0.40;;
21330;SDS011;10824;51.632;4.950;2022-09-21T17:51:29;1.48;;;0.38;;
21330;SDS011;10824;51.632;4.950;2022-09-21T17:54:15;0.95;;;0.52;;
21330;SDS011;10824;51.632;4.950;2022-09-21T17:56:46;2.92;;;0.63;;
21330;SDS011;10824;51.632;4.950;2022-09-21T17:59:26;0.60;;;0.55;;
21330;SDS011;10824;51.632;4.950;2022-09-21T18:01:57;2.20;;;0.45;;
21330;SDS011;10824;51.632;4.950;2022-09-21T18:04:28;2.15;;;0.93;;
21330;SDS011;10824;51.632;4.950;2022-09-21T18:07:00;2.78;;;0.80;;
21330;SDS011;10824;51.632;4.950;2022-09-21T18:09:28;3.97;;;0.70;;
21330;SDS011;10824;51.632;4.950;2022-09-21T18:12:06;2.42;;;0.73;;
21330;SDS011;10824;51.632;4.950;2022-09-21T18:18:35;2.15;;;0.93;;
21330;SDS011;10824;51.632;4.950;2022-09-21T18:23:55;3.95;;;0.90;;
21330;SDS011;10824;51.632;4.950;2022-09-21T18:25:57;6.15;;;1.98;;
21330;SDS011;10824;51.632;4.950;2022-09-21T18:33:53;5.50;;;2.17;;
21330;SDS011;10824;51.632;4.950;2022-09-21T18:36:44;7.43;;;1.98;;
21330;SDS011;10824;51.632;4.950;2022-09-21T18:39:36;2.95;;;1.50;;
21330;SDS011;10824;51.632;4.950;2022-09-21T18:53:45;5.30;;;1.23;;
21330;SDS011;10824;51.632;4.950;2022-09-21T18:56:15;2.70;;;0.95;;
21330;SDS011;10824;51.632;4.950;2022-09-21T18:58:43;3.20;;;1.10;;
21330;SDS011;10824;51.632;4.950;2022-09-21T19:01:12;5.57;;;1.33;;
21330;SDS011;10824;51.632;4.950;2022-09-21T19:03:42;2.97;;;1.25;;
21330;SDS011;10824;51.632;4.950;2022-09-21T19:20:51;6.15;;;3.15;;
21330;SDS011;10824;51.632;4.950;2022-09-21T19:23:42;3.90;;;1.10;;
21330;SDS011;10824;51.632;4.950;2022-09-21T19:26:32;2.20;;;1.05;;
21330;SDS011;10824;51.632;4.950;2022-09-21T19:31:48;4.00;;;0.80;;
21330;SDS011;10824;51.632;4.950;2022-09-21T19:34:21;1.88;;;0.80;;
21330;SDS011;10824;51.632;4.950;2022-09-21T19:36:49;1.83;;;0.82;;
21330;SDS011;10824;51.632;4.950;2022-09-21T19:39:17;4.15;;;0.85;;